sensor_id;sensor_type;location;lat;lon;timestamp;pressure;altitude;pressure_sealevel;temperature;humidity
68793;BME280;55778;54.346;10.210;2023-05-17T00:00:36;101363.16;;;7.46;98.59
68793;BME280;55778;54.346;10.210;2023-05-17T00:03:02;101356.09;;;7.43;98.60
68793;BME280;55778;54.346;10.210;2023-05-17T00:05:27;101367.81;;;7.44;98.21
68793;BME280;55778;54.346;10.210;2023-05-17T00:07:53;101366.19;;;7.41;97.99
68793;BME280;55778;54.346;10.210;2023-05-17T00:10:18;101362.94;;;7.36;97.75
68793;BME280;55778;54.346;10.210;2023-05-17T00:12:43;101375.97;;;7.31;98.15
68793;BME280;55778;54.346;10.210;2023-05-17T00:15:09;101373.78;;;7.36;97.28
68793;BME280;55778;54.346;10.210;2023-05-17T00:17:34;101386.34;;;7.37;96.74
68793;BME280;55778;54.346;10.210;2023-05-17T00:20:03;101379.22;;;7.36;96.46
68793;BME280;55778;54.346;10.210;2023-05-17T00:22:28;101379.75;;;7.29;97.00
68793;BME280;55778;54.346;10.210;2023-05-17T00:24:53;101385.72;;;7.34;95.77
68793;BME280;55778;54.346;10.210;2023-05-17T00:27:19;101387.66;;;7.32;95.46
68793;BME280;55778;54.346;10.210;2023-05-17T00:29:44;101393.09;;;7.32;95.83
68793;BME280;55778;54.346;10.210;2023-05-17T00:32:09;101390.59;;;7.29;95.08
68793;BME280;55778;54.346;10.210;2023-05-17T00:34:35;101388.88;;;7.28;93.83
68793;BME280;55778;54.346;10.210;2023-05-17T00:37:00;101383.47;;;7.28;92.89
68793;BME280;55778;54.346;10.210;2023-05-17T00:39:25;101388.75;;;7.17;93.57
68793;BME280;55778;54.346;10.210;2023-05-17T00:41:51;101385.41;;;7.13;91.77
68793;BME280;55778;54.346;10.210;2023-05-17T00:44:16;101391.16;;;7.09;91.45
68793;BME280;55778;54.346;10.210;2023-05-17T00:46:42;101384.97;;;7.07;90.82
68793;BME280;55778;54.346;10.210;2023-05-17T00:49:07;101386.69;;;7.08;90.15
68793;BME280;55778;54.346;10.210;2023-05-17T00:51:36;101391.47;;;6.92;90.57
68793;BME280;55778;54.346;10.210;2023-05-17T00:54:02;101394.94;;;6.94;90.57
68793;BME280;55778;54.346;10.210;2023-05-17T00:56:28;101399.69;;;6.90;89.69
68793;BME280;55778;54.346;10.210;2023-05-17T00:58:55;101392.34;;;6.92;88.84
68793;BME280;55778;54.346;10.210;2023-05-17T01:01:21;101399.94;;;7.00;87.31
68793;BME280;55778;54.346;10.210;2023-05-17T01:03:46;101407.84;;;6.90;87.66
68793;BME280;55778;54.346;10.210;2023-05-17T01:06:12;101412.41;;;6.90;86.89
68793;BME280;55778;54.346;10.210;2023-05-17T01:08:37;101415.22;;;6.88;86.47
68793;BME280;55778;54.346;10.210;2023-05-17T01:11:51;101426.16;;;6.87;86.06
68793;BME280;55778;54.346;10.210;2023-05-17T01:14:57;101414.66;;;6.83;85.62
68793;BME280;55778;54.346;10.210;2023-05-17T01:17:38;101427.09;;;6.73;87.04
68793;BME280;55778;54.346;10.210;2023-05-17T01:22:59;101425.88;;;6.65;87.25
68793;BME280;55778;54.346;10.210;2023-05-17T01:28:17;101433.56;;;6.71;86.68
68793;BME280;55778;54.346;10.210;2023-05-17T01:30:46;101440.41;;;6.64;87.18
68793;BME280;55778;54.346;10.210;2023-05-17T01:33:11;101441.59;;;6.60;87.77
68793;BME280;55778;54.346;10.210;2023-05-17T01:35:37;101438.50;;;6.52;88.47
68793;BME280;55778;54.346;10.210;2023-05-17T01:38:02;101453.50;;;6.57;88.39
68793;BME280;55778;54.346;10.210;2023-05-17T01:40:30;101458.56;;;6.62;87.58
68793;BME280;55778;54.346;10.210;2023-05-17T01:43:09;101460.97;;;6.66;87.05
68793;BME280;55778;54.346;10.210;2023-05-17T01:45:46;101461.75;;;6.68;86.19
68793;BME280;55778;54.346;10.210;2023-05-17T01:48:31;101469.19;;;6.65;85.85
68793;BME280;55778;54.346;10.210;2023-05-17T01:50:59;101481.72;;;6.53;86.74
68793;BME280;55778;54.346;10.210;2023-05-17T01:53:38;101481.09;;;6.50;86.43
68793;BME280;55778;54.346;10.210;2023-05-17T01:56:19;101492.88;;;6.49;85.47
68793;BME280;55778;54.346;10.210;2023-05-17T01:58:47;101494.56;;;6.37;86.27
68793;BME280;55778;54.346;10.210;2023-05-17T02:01:18;101483.63;;;6.39;86.01
68793;BME280;55778;54.346;10.210;2023-05-17T02:03:47;101483.34;;;6.29;85.92
68793;BME280;55778;54.346;10.210;2023-05-17T02:06:13;101487.03;;;6.28;86.18
68793;BME280;55778;54.346;10.210;2023-05-17T02:08:39;101487.03;;;6.28;84.47
68793;BME280;55778;54.346;10.210;2023-05-17T02:11:04;101488.78;;;6.29;84.00
68793;BME280;55778;54.346;10.210;2023-05-17T02:13:30;101487.03;;;6.28;82.91
68793;BME280;55778;54.346;10.210;2023-05-17T02:15:59;101490.97;;;6.37;82.37
68793;BME280;55778;54.346;10.210;2023-05-17T02:18:25;101498.34;;;6.35;82.42
68793;BME280;55778;54.346;10.210;2023-05-17T02:20:50;101488.13;;;6.26;83.28
68793;BME280;55778;54.346;10.210;2023-05-17T02:23:16;101511.88;;;6.35;82.03
68793;BME280;55778;54.346;10.210;2023-05-17T02:25:41;101512.97;;;6.18;83.80
68793;BME280;55778;54.346;10.210;2023-05-17T02:28:06;101501.66;;;6.26;83.00
68793;BME280;55778;54.346;10.210;2023-05-17T02:30:32;101501.75;;;6.24;83.00
68793;BME280;55778;54.346;10.210;2023-05-17T02:32:57;101508.34;;;6.20;82.58
68793;BME280;55778;54.346;10.210;2023-05-17T02:35:23;101496.34;;;6.24;82.67
68793;BME280;55778;54.346;10.210;2023-05-17T02:37:48;101499.16;;;6.08;83.71
68793;BME280;55778;54.346;10.210;2023-05-17T02:40:13;101508.16;;;6.09;83.80
68793;BME280;55778;54.346;10.210;2023-05-17T02:42:39;101504.97;;;6.17;82.79
68793;BME280;55778;54.346;10.210;2023-05-17T02:45:05;101511.94;;;6.06;83.45
68793;BME280;55778;54.346;10.210;2023-05-17T02:47:30;101511.34;;;6.16;83.22
68793;BME280;55778;54.346;10.210;2023-05-17T02:49:56;101510.63;;;6.26;82.89
68793;BME280;55778;54.346;10.210;2023-05-17T02:52:21;101512.47;;;6.26;83.31
68793;BME280;55778;54.346;10.210;2023-05-17T02:54:46;101517.22;;;6.22;84.13
68793;BME280;55778;54.346;10.210;2023-05-17T02:57:12;101527.00;;;6.10;85.12
68793;BME280;55778;54.346;10.210;2023-05-17T02:59:37;101526.66;;;6.29;85.00
68793;BME280;55778;54.346;10.210;2023-05-17T03:02:03;101528.34;;;6.18;85.38
68793;BME280;55778;54.346;10.210;2023-05-17T03:04:28;101526.59;;;6.17;85.35
68793;BME280;55778;54.346;10.210;2023-05-17T03:06:53;101523.81;;;6.18;84.22
68793;BME280;55778;54.346;10.210;2023-05-17T03:09:20;101525.53;;;6.19;83.95
68793;BME280;55778;54.346;10.210;2023-05-17T03:11:45;101521.41;;;6.13;84.33
68793;BME280;55778;54.346;10.210;2023-05-17T03:14:10;101537.63;;;6.13;84.20
68793;BME280;55778;54.346;10.210;2023-05-17T03:16:36;101530.94;;;6.19;82.78
68793;BME280;55778;54.346;10.210;2023-05-17T03:19:01;101537.22;;;6.20;82.46
68793;BME280;55778;54.346;10.210;2023-05-17T03:21:27;101533.72;;;6.32;79.83
68793;BME280;55778;54.346;10.210;2023-05-17T03:23:52;101539.16;;;6.32;78.94
68793;BME280;55778;54.346;10.210;2023-05-17T03:26:17;101543.88;;;6.28;76.86
68793;BME280;55778;54.346;10.210;2023-05-17T03:28:47;101542.81;;;6.31;76.20
68793;BME280;55778;54.346;10.210;2023-05-17T03:31:12;101541.06;;;6.30;76.56
68793;BME280;55778;54.346;10.210;2023-05-17T03:33:38;101545.81;;;6.26;76.62
68793;BME280;55778;54.346;10.210;2023-05-17T03:36:03;101548.00;;;6.34;76.30
68793;BME280;55778;54.346;10.210;2023-05-17T03:38:29;101546.97;;;6.36;76.13
68793;BME280;55778;54.346;10.210;2023-05-17T03:40:54;101554.50;;;6.31;77.31
68793;BME280;55778;54.346;10.210;2023-05-17T03:43:19;101552.63;;;6.46;75.50
68793;BME280;55778;54.346;10.210;2023-05-17T03:45:45;101564.84;;;6.39;76.31
68793;BME280;55778;54.346;10.210;2023-05-17T03:48:10;101556.41;;;6.43;76.90
68793;BME280;55778;54.346;10.210;2023-05-17T03:50:36;101561.06;;;6.41;76.62
68793;BME280;55778;54.346;10.210;2023-05-17T03:53:01;101563.38;;;6.47;75.76
68793;BME280;55778;54.346;10.210;2023-05-17T03:55:26;101562.72;;;6.44;75.18
68793;BME280;55778;54.346;10.210;2023-05-17T03:57:52;101564.53;;;6.57;74.20
68793;BME280;55778;54.346;10.210;2023-05-17T04:00:17;101564.91;;;6.51;74.87
68793;BME280;55778;54.346;10.210;2023-05-17T04:02:49;101565.22;;;6.47;75.78
68793;BME280;55778;54.346;10.210;2023-05-17T04:05:15;101575.34;;;6.57;74.95
68793;BME280;55778;54.346;10.210;2023-05-17T04:07:40;101587.50;;;6.64;74.80
68793;BME280;55778;54.346;10.210;2023-05-17T04:10:06;101578.16;;;6.56;75.77
68793;BME280;55778;54.346;10.210;2023-05-17T04:12:32;101591.38;;;6.60;76.14
68793;BME280;55778;54.346;10.210;2023-05-17T04:14:57;101593.13;;;6.61;76.07
68793;BME280;55778;54.346;10.210;2023-05-17T04:17:23;101593.13;;;6.61;76.03
68793;BME280;55778;54.346;10.210;2023-05-17T04:19:48;101584.41;;;6.56;75.63
68793;BME280;55778;54.346;10.210;2023-05-17T04:22:13;101599.19;;;6.65;74.88
68793;BME280;55778;54.346;10.210;2023-05-17T04:24:39;101594.44;;;6.68;75.03
68793;BME280;55778;54.346;10.210;2023-05-17T04:27:04;101580.81;;;6.70;73.09
68793;BME280;55778;54.346;10.210;2023-05-17T04:29:31;101597.53;;;6.76;72.81
68793;BME280;55778;54.346;10.210;2023-05-17T04:31:56;101601.09;;;6.77;72.64
68793;BME280;55778;54.346;10.210;2023-05-17T04:34:22;101603.34;;;6.70;73.21
68793;BME280;55778;54.346;10.210;2023-05-17T04:36:49;101609.22;;;6.77;73.93
68793;BME280;55778;54.346;10.210;2023-05-17T04:39:14;101597.53;;;6.76;72.50
68793;BME280;55778;54.346;10.210;2023-05-17T04:41:40;101613.78;;;6.76;73.04
68793;BME280;55778;54.346;10.210;2023-05-17T04:44:05;101616.00;;;6.84;73.12
68793;BME280;55778;54.346;10.210;2023-05-17T04:46:31;101620.44;;;6.85;72.94
68793;BME280;55778;54.346;10.210;2023-05-17T04:48:57;101626.72;;;6.85;71.93
68793;BME280;55778;54.346;10.210;2023-05-17T04:51:23;101628.66;;;6.83;73.02
68793;BME280;55778;54.346;10.210;2023-05-17T04:53:48;101626.44;;;6.90;72.94
68793;BME280;55778;54.346;10.210;2023-05-17T04:56:14;101625.84;;;6.85;72.28
68793;BME280;55778;54.346;10.210;2023-05-17T04:58:39;101630.56;;;6.95;71.06
68793;BME280;55778;54.346;10.210;2023-05-17T05:01:05;101631.75;;;6.91;72.22
68793;BME280;55778;54.346;10.210;2023-05-17T05:03:30;101634.16;;;6.96;71.46
68793;BME280;55778;54.346;10.210;2023-05-17T05:05:56;101630.75;;;6.92;71.06
68793;BME280;55778;54.346;10.210;2023-05-17T05:08:21;101645.72;;;6.98;71.27
68793;BME280;55778;54.346;10.210;2023-05-17T05:10:47;101641.44;;;7.08;71.06
68793;BME280;55778;54.346;10.210;2023-05-17T05:13:12;101637.50;;;6.99;70.33
68793;BME280;55778;54.346;10.210;2023-05-17T05:15:38;101646.22;;;7.04;69.18
68793;BME280;55778;54.346;10.210;2023-05-17T05:18:03;101643.59;;;7.03;69.69
68793;BME280;55778;54.346;10.210;2023-05-17T05:20:30;101649.22;;;7.00;69.80
68793;BME280;55778;54.346;10.210;2023-05-17T05:22:56;101664.88;;;7.09;70.98
68793;BME280;55778;54.346;10.210;2023-05-17T05:25:22;101667.88;;;7.04;70.30
68793;BME280;55778;54.346;10.210;2023-05-17T05:27:47;101666.00;;;7.19;69.91
68793;BME280;55778;54.346;10.210;2023-05-17T05:30:13;101665.22;;;7.17;70.76
68793;BME280;55778;54.346;10.210;2023-05-17T05:32:46;101677.91;;;7.16;68.41
68793;BME280;55778;54.346;10.210;2023-05-17T05:35:12;101678.97;;;7.14;68.91
68793;BME280;55778;54.346;10.210;2023-05-17T05:37:37;101672.00;;;7.24;68.48
68793;BME280;55778;54.346;10.210;2023-05-17T05:40:02;101676.91;;;7.31;67.94
68793;BME280;55778;54.346;10.210;2023-05-17T05:42:28;101674.59;;;7.25;67.71
68793;BME280;55778;54.346;10.210;2023-05-17T05:44:54;101692.50;;;7.28;68.59
68793;BME280;55778;54.346;10.210;2023-05-17T05:47:19;101686.75;;;7.32;67.16
68793;BME280;55778;54.346;10.210;2023-05-17T05:49:44;101695.88;;;7.31;66.29
68793;BME280;55778;54.346;10.210;2023-05-17T05:52:10;101693.16;;;7.31;67.93
68793;BME280;55778;54.346;10.210;2023-05-17T05:54:35;101693.00;;;7.47;67.20
68793;BME280;55778;54.346;10.210;2023-05-17T05:57:00;101698.88;;;7.53;68.19
68793;BME280;55778;54.346;10.210;2023-05-17T05:59:26;101706.50;;;7.61;66.67
68793;BME280;55778;54.346;10.210;2023-05-17T06:01:52;101702.97;;;7.46;66.05
68793;BME280;55778;54.346;10.210;2023-05-17T06:04:17;101715.09;;;7.41;66.28
68793;BME280;55778;54.346;10.210;2023-05-17T06:06:42;101704.44;;;7.38;66.12
68793;BME280;55778;54.346;10.210;2023-05-17T06:09:08;101704.31;;;7.53;65.99
68793;BME280;55778;54.346;10.210;2023-05-17T06:11:36;101720.69;;;7.52;65.88
68793;BME280;55778;54.346;10.210;2023-05-17T06:14:02;101731.88;;;7.60;66.69
68793;BME280;55778;54.346;10.210;2023-05-17T06:16:27;101732.03;;;7.71;65.87
68793;BME280;55778;54.346;10.210;2023-05-17T06:18:52;101725.19;;;7.65;65.59
68793;BME280;55778;54.346;10.210;2023-05-17T06:21:18;101726.06;;;7.78;65.97
68793;BME280;55778;54.346;10.210;2023-05-17T06:23:43;101733.22;;;7.67;66.31
68793;BME280;55778;54.346;10.210;2023-05-17T06:26:09;101744.81;;;7.69;66.69
68793;BME280;55778;54.346;10.210;2023-05-17T06:28:36;101741.59;;;7.76;66.93
68793;BME280;55778;54.346;10.210;2023-05-17T06:31:01;101752.63;;;7.61;66.22
68793;BME280;55778;54.346;10.210;2023-05-17T06:33:27;101749.38;;;7.68;66.77
68793;BME280;55778;54.346;10.210;2023-05-17T06:35:53;101765.31;;;7.73;66.87
68793;BME280;55778;54.346;10.210;2023-05-17T06:38:19;101762.28;;;7.65;66.43
68793;BME280;55778;54.346;10.210;2023-05-17T06:40:44;101776.03;;;7.62;66.73
68793;BME280;55778;54.346;10.210;2023-05-17T06:43:10;101768.41;;;7.54;65.21
68793;BME280;55778;54.346;10.210;2023-05-17T06:45:37;101767.50;;;7.68;66.59
68793;BME280;55778;54.346;10.210;2023-05-17T06:48:03;101778.47;;;7.79;66.27
68793;BME280;55778;54.346;10.210;2023-05-17T06:50:28;101780.25;;;7.92;66.76
68793;BME280;55778;54.346;10.210;2023-05-17T06:52:54;101773.22;;;7.90;65.97
68793;BME280;55778;54.346;10.210;2023-05-17T06:55:19;101775.19;;;8.00;65.40
68793;BME280;55778;54.346;10.210;2023-05-17T06:57:45;101774.72;;;7.94;64.36
68793;BME280;55778;54.346;10.210;2023-05-17T07:00:11;101778.53;;;7.91;62.61
68793;BME280;55778;54.346;10.210;2023-05-17T07:02:37;101779.00;;;7.98;62.79
68793;BME280;55778;54.346;10.210;2023-05-17T07:05:04;101782.13;;;7.92;63.66
68793;BME280;55778;54.346;10.210;2023-05-17T07:07:30;101798.47;;;8.17;62.22
68793;BME280;55778;54.346;10.210;2023-05-17T07:09:55;101803.06;;;7.90;61.82
68793;BME280;55778;54.346;10.210;2023-05-17T07:12:21;101792.56;;;8.25;61.53
68793;BME280;55778;54.346;10.210;2023-05-17T07:14:46;101791.78;;;8.23;62.77
68793;BME280;55778;54.346;10.210;2023-05-17T07:17:12;101796.38;;;8.35;61.20
68793;BME280;55778;54.346;10.210;2023-05-17T07:19:37;101792.44;;;8.39;62.01
68793;BME280;55778;54.346;10.210;2023-05-17T07:22:03;101784.31;;;8.64;61.90
68793;BME280;55778;54.346;10.210;2023-05-17T07:24:28;101787.47;;;8.58;60.35
68793;BME280;55778;54.346;10.210;2023-05-17T07:26:53;101796.06;;;8.64;60.47
68793;BME280;55778;54.346;10.210;2023-05-17T07:29:19;101804.63;;;8.46;60.82
68793;BME280;55778;54.346;10.210;2023-05-17T07:31:44;101800.50;;;8.53;61.20
68793;BME280;55778;54.346;10.210;2023-05-17T07:34:10;101806.38;;;8.72;59.66
68793;BME280;55778;54.346;10.210;2023-05-17T07:36:35;101812.59;;;8.99;60.70
68793;BME280;55778;54.346;10.210;2023-05-17T07:39:00;101799.09;;;8.85;59.14
68793;BME280;55778;54.346;10.210;2023-05-17T07:41:26;101806.47;;;9.08;60.29
68793;BME280;55778;54.346;10.210;2023-05-17T07:43:51;101811.81;;;8.97;59.58
68793;BME280;55778;54.346;10.210;2023-05-17T07:46:17;101819.72;;;9.25;59.63
68793;BME280;55778;54.346;10.210;2023-05-17T07:48:42;101820.50;;;9.02;60.81
68793;BME280;55778;54.346;10.210;2023-05-17T07:51:08;101819.31;;;8.93;61.74
68793;BME280;55778;54.346;10.210;2023-05-17T07:53:33;101801.59;;;9.00;60.25
68793;BME280;55778;54.346;10.210;2023-05-17T07:55:58;101816.38;;;8.96;60.25
68793;BME280;55778;54.346;10.210;2023-05-17T07:58:24;101826.81;;;9.02;60.85
68793;BME280;55778;54.346;10.210;2023-05-17T08:00:49;101829.09;;;9.08;60.28
68793;BME280;55778;54.346;10.210;2023-05-17T08:03:15;101834.75;;;8.93;61.72
68793;BME280;55778;54.346;10.210;2023-05-17T08:05:40;101833.78;;;8.94;63.27
68793;BME280;55778;54.346;10.210;2023-05-17T08:08:05;101832.66;;;9.21;62.68
68793;BME280;55778;54.346;10.210;2023-05-17T08:10:31;101846.38;;;9.07;61.26
68793;BME280;55778;54.346;10.210;2023-05-17T08:12:57;101840.28;;;9.04;59.96
68793;BME280;55778;54.346;10.210;2023-05-17T08:15:22;101850.84;;;9.21;59.89
68793;BME280;55778;54.346;10.210;2023-05-17T08:17:49;101858.78;;;9.24;60.74
68793;BME280;55778;54.346;10.210;2023-05-17T08:20:14;101858.22;;;9.19;62.68
68793;BME280;55778;54.346;10.210;2023-05-17T08:22:40;101851.19;;;8.91;62.75
68793;BME280;55778;54.346;10.210;2023-05-17T08:25:05;101863.00;;;8.90;62.05
68793;BME280;55778;54.346;10.210;2023-05-17T08:27:31;101857.63;;;9.51;60.12
68793;BME280;55778;54.346;10.210;2023-05-17T08:29:57;101865.13;;;9.60;58.78
68793;BME280;55778;54.346;10.210;2023-05-17T08:32:23;101862.88;;;9.78;59.31
68793;BME280;55778;54.346;10.210;2023-05-17T08:34:49;101869.50;;;9.50;58.74
68793;BME280;55778;54.346;10.210;2023-05-17T08:37:14;101870.50;;;9.24;59.45
68793;BME280;55778;54.346;10.210;2023-05-17T08:39:40;101876.72;;;9.39;59.86
68793;BME280;55778;54.346;10.210;2023-05-17T08:42:06;101886.53;;;9.16;60.93
68793;BME280;55778;54.346;10.210;2023-05-17T08:44:32;101880.84;;;8.82;61.60
68793;BME280;55778;54.346;10.210;2023-05-17T08:46:58;101880.97;;;9.05;62.96
68793;BME280;55778;54.346;10.210;2023-05-17T08:49:26;101879.13;;;8.81;62.35
68793;BME280;55778;54.346;10.210;2023-05-17T08:51:53;101893.69;;;8.80;62.11
68793;BME280;55778;54.346;10.210;2023-05-17T08:54:19;101892.94;;;9.40;61.49
68793;BME280;55778;54.346;10.210;2023-05-17T08:56:46;101902.28;;;9.85;58.87
68793;BME280;55778;54.346;10.210;2023-05-17T08:59:16;101894.84;;;9.99;59.69
68793;BME280;55778;54.346;10.210;2023-05-17T09:01:43;101902.16;;;10.23;58.90
68793;BME280;55778;54.346;10.210;2023-05-17T09:04:11;101909.59;;;9.84;58.78
68793;BME280;55778;54.346;10.210;2023-05-17T09:06:36;101909.59;;;9.72;58.91
68793;BME280;55778;54.346;10.210;2023-05-17T09:09:03;101912.47;;;9.45;57.40
68793;BME280;55778;54.346;10.210;2023-05-17T09:11:31;101910.91;;;9.79;58.12
68793;BME280;55778;54.346;10.210;2023-05-17T09:14:05;101903.69;;;9.90;58.36
68793;BME280;55778;54.346;10.210;2023-05-17T09:16:32;101911.59;;;9.57;57.66
68793;BME280;55778;54.346;10.210;2023-05-17T09:19:00;101922.38;;;9.71;58.39
68793;BME280;55778;54.346;10.210;2023-05-17T09:21:27;101921.28;;;9.61;57.32
68793;BME280;55778;54.346;10.210;2023-05-17T09:23:55;101922.94;;;9.51;57.64
68793;BME280;55778;54.346;10.210;2023-05-17T09:26:20;101947.69;;;9.84;56.99
68793;BME280;55778;54.346;10.210;2023-05-17T09:28:48;101916.72;;;9.98;56.74
68793;BME280;55778;54.346;10.210;2023-05-17T09:31:15;101936.84;;;10.44;57.39
68793;BME280;55778;54.346;10.210;2023-05-17T09:33:48;101936.53;;;10.94;55.20
68793;BME280;55778;54.346;10.210;2023-05-17T09:36:21;101926.34;;;11.42;56.25
68793;BME280;55778;54.346;10.210;2023-05-17T09:39:01;101935.41;;;10.86;55.22
68793;BME280;55778;54.346;10.210;2023-05-17T09:41:32;101946.22;;;10.40;57.13
68793;BME280;55778;54.346;10.210;2023-05-17T09:44:01;101936.66;;;10.58;57.24
68793;BME280;55778;54.346;10.210;2023-05-17T09:46:27;101944.44;;;10.52;57.76
68793;BME280;55778;54.346;10.210;2023-05-17T09:48:57;101942.13;;;11.04;58.07
68793;BME280;55778;54.346;10.210;2023-05-17T09:53:58;101934.56;;;10.62;56.03
68793;BME280;55778;54.346;10.210;2023-05-17T09:56:29;101943.00;;;10.70;57.03
68793;BME280;55778;54.346;10.210;2023-05-17T09:58:56;101951.28;;;10.92;56.35
68793;BME280;55778;54.346;10.210;2023-05-17T10:01:25;101944.59;;;10.96;56.23
68793;BME280;55778;54.346;10.210;2023-05-17T10:03:51;101938.88;;;11.44;56.75
68793;BME280;55778;54.346;10.210;2023-05-17T10:06:17;101945.84;;;10.68;54.46
68793;BME280;55778;54.346;10.210;2023-05-17T10:08:50;101950.19;;;11.05;55.77
68793;BME280;55778;54.346;10.210;2023-05-17T10:11:21;101935.50;;;11.41;52.90
68793;BME280;55778;54.346;10.210;2023-05-17T10:14:09;101958.06;;;10.75;56.11
68793;BME280;55778;54.346;10.210;2023-05-17T10:16:39;101949.63;;;10.78;55.28
68793;BME280;55778;54.346;10.210;2023-05-17T10:19:05;101950.28;;;10.58;56.51
68793;BME280;55778;54.346;10.210;2023-05-17T10:21:33;101952.25;;;10.80;57.08
68793;BME280;55778;54.346;10.210;2023-05-17T10:24:01;101960.25;;;11.05;57.61
68793;BME280;55778;54.346;10.210;2023-05-17T10:26:27;101958.13;;;11.08;57.82
68793;BME280;55778;54.346;10.210;2023-05-17T10:28:56;101954.97;;;10.80;58.26
68793;BME280;55778;54.346;10.210;2023-05-17T10:31:28;101959.31;;;11.17;59.38
68793;BME280;55778;54.346;10.210;2023-05-17T10:33:54;101958.94;;;10.87;58.26
68793;BME280;55778;54.346;10.210;2023-05-17T10:36:20;101967.91;;;10.65;61.07
68793;BME280;55778;54.346;10.210;2023-05-17T10:38:48;101968.41;;;10.70;61.26
68793;BME280;55778;54.346;10.210;2023-05-17T10:41:15;101981.72;;;10.51;61.79
68793;BME280;55778;54.346;10.210;2023-05-17T10:43:42;101979.00;;;10.51;60.95
68793;BME280;55778;54.346;10.210;2023-05-17T10:46:14;101977.19;;;10.63;59.29
68793;BME280;55778;54.346;10.210;2023-05-17T10:48:41;101982.78;;;11.41;57.20
68793;BME280;55778;54.346;10.210;2023-05-17T10:51:06;101961.88;;;11.64;55.68
68793;BME280;55778;54.346;10.210;2023-05-17T10:53:32;101981.78;;;11.31;54.67
68793;BME280;55778;54.346;10.210;2023-05-17T10:55:58;101975.44;;;10.85;56.08
68793;BME280;55778;54.346;10.210;2023-05-17T10:58:27;101979.09;;;10.73;57.05
68793;BME280;55778;54.346;10.210;2023-05-17T11:00:52;101980.19;;;11.05;54.04
68793;BME280;55778;54.346;10.210;2023-05-17T11:03:24;101975.47;;;10.62;53.78
68793;BME280;55778;54.346;10.210;2023-05-17T11:08:35;101973.38;;;11.00;54.87
68793;BME280;55778;54.346;10.210;2023-05-17T11:11:07;101964.56;;;10.96;54.97
68793;BME280;55778;54.346;10.210;2023-05-17T11:16:16;101965.03;;;11.36;54.26
68793;BME280;55778;54.346;10.210;2023-05-17T11:19:06;101971.50;;;11.46;53.52
68793;BME280;55778;54.346;10.210;2023-05-17T11:21:32;101976.41;;;12.51;54.25
68793;BME280;55778;54.346;10.210;2023-05-17T11:24:00;101977.88;;;11.79;55.34
68793;BME280;55778;54.346;10.210;2023-05-17T11:26:35;101980.81;;;10.98;58.13
68793;BME280;55778;54.346;10.210;2023-05-17T11:29:06;101988.38;;;10.94;57.66
68793;BME280;55778;54.346;10.210;2023-05-17T11:31:34;101989.06;;;11.20;55.91
68793;BME280;55778;54.346;10.210;2023-05-17T11:34:02;101977.88;;;11.68;55.09
68793;BME280;55778;54.346;10.210;2023-05-17T11:36:28;101980.72;;;12.11;53.13
68793;BME280;55778;54.346;10.210;2023-05-17T11:39:14;101986.47;;;11.97;52.66
68793;BME280;55778;54.346;10.210;2023-05-17T11:41:47;101975.97;;;12.24;52.18
68793;BME280;55778;54.346;10.210;2023-05-17T11:44:15;101987.69;;;11.71;54.26
68793;BME280;55778;54.346;10.210;2023-05-17T11:46:41;101991.16;;;11.73;55.46
68793;BME280;55778;54.346;10.210;2023-05-17T11:49:07;101992.03;;;11.17;55.33
68793;BME280;55778;54.346;10.210;2023-05-17T11:51:33;102000.84;;;11.66;54.27
68793;BME280;55778;54.346;10.210;2023-05-17T11:53:59;101999.91;;;11.43;53.81
68793;BME280;55778;54.346;10.210;2023-05-17T11:56:33;102010.00;;;11.65;54.79
68793;BME280;55778;54.346;10.210;2023-05-17T11:58:59;102009.09;;;11.53;56.43
68793;BME280;55778;54.346;10.210;2023-05-17T12:01:24;102006.56;;;11.63;54.46
68793;BME280;55778;54.346;10.210;2023-05-17T12:03:55;101998.63;;;11.82;52.93
68793;BME280;55778;54.346;10.210;2023-05-17T12:06:23;102004.06;;;11.93;52.70
68793;BME280;55778;54.346;10.210;2023-05-17T12:08:49;101999.38;;;12.06;52.14
68793;BME280;55778;54.346;10.210;2023-05-17T12:11:15;102004.03;;;11.60;51.73
68793;BME280;55778;54.346;10.210;2023-05-17T12:13:42;101995.34;;;11.55;53.00
68793;BME280;55778;54.346;10.210;2023-05-17T12:16:10;101999.38;;;12.06;53.38
68793;BME280;55778;54.346;10.210;2023-05-17T12:18:46;101999.75;;;12.01;52.82
68793;BME280;55778;54.346;10.210;2023-05-17T12:21:12;102003.81;;;11.96;53.49
68793;BME280;55778;54.346;10.210;2023-05-17T12:23:40;102001.34;;;11.93;54.82
68793;BME280;55778;54.346;10.210;2023-05-17T12:26:13;101999.25;;;11.96;55.93
68793;BME280;55778;54.346;10.210;2023-05-17T12:31:16;102009.38;;;11.16;57.12
68793;BME280;55778;54.346;10.210;2023-05-17T12:33:43;102007.56;;;11.27;55.37
68793;BME280;55778;54.346;10.210;2023-05-17T12:36:10;102005.31;;;11.78;54.92
68793;BME280;55778;54.346;10.210;2023-05-17T12:38:39;102005.00;;;11.59;53.06
68793;BME280;55778;54.346;10.210;2023-05-17T12:41:06;102014.22;;;11.12;55.46
68793;BME280;55778;54.346;10.210;2023-05-17T12:43:33;102017.91;;;11.11;56.38
68793;BME280;55778;54.346;10.210;2023-05-17T12:46:05;102004.66;;;11.52;56.73
68793;BME280;55778;54.346;10.210;2023-05-17T12:48:35;102012.16;;;12.05;54.66
68793;BME280;55778;54.346;10.210;2023-05-17T12:51:27;102016.25;;;12.00;53.74
68793;BME280;55778;54.346;10.210;2023-05-17T12:53:54;102020.72;;;12.01;53.29
68793;BME280;55778;54.346;10.210;2023-05-17T12:56:26;102021.09;;;11.96;52.91
68793;BME280;55778;54.346;10.210;2023-05-17T12:59:17;102021.34;;;11.93;54.43
68793;BME280;55778;54.346;10.210;2023-05-17T13:01:51;102020.47;;;12.04;52.98
68793;BME280;55778;54.346;10.210;2023-05-17T13:04:18;102016.50;;;11.97;52.12